sensor_id;sensor_type;location;lat;lon;timestamp;pressure;altitude;pressure_sealevel;temperature;humidity
57779;BME280;43608;49.486;9.640;2023-02-10T00:00:22;100530.47;;;-6.40;82.09
57779;BME280;43608;49.486;9.640;2023-02-10T00:00:52;100564.66;;;-6.23;81.74
57779;BME280;43608;49.486;9.640;2023-02-10T00:01:27;100570.44;;;-6.26;81.96
57779;BME280;43608;49.486;9.640;2023-02-10T00:01:57;100565.28;;;-6.26;82.19
57779;BME280;43608;49.486;9.640;2023-02-10T00:02:29;100565.91;;;-6.28;81.93
57779;BME280;43608;49.486;9.640;2023-02-10T00:02:59;100553.50;;;-6.33;81.76
57779;BME280;43608;49.486;9.640;2023-02-10T00:03:30;100563.34;;;-6.28;81.82
57779;BME280;43608;49.486;9.640;2023-02-10T00:04:01;100570.94;;;-6.30;82.05
57779;BME280;43608;49.486;9.640;2023-02-10T00:04:32;100554.00;;;-6.37;82.48
57779;BME280;43608;49.486;9.640;2023-02-10T00:05:02;100576.53;;;-6.25;81.84
57779;BME280;43608;49.486;9.640;2023-02-10T00:05:33;100561.25;;;-6.33;82.10
57779;BME280;43608;49.486;9.640;2023-02-10T00:06:04;100573.78;;;-6.27;82.15
57779;BME280;43608;49.486;9.640;2023-02-10T00:06:35;100580.63;;;-6.27;81.94
57779;BME280;43608;49.486;9.640;2023-02-10T00:07:05;100562.75;;;-6.35;82.28
57779;BME280;43608;49.486;9.640;2023-02-10T00:07:36;100560.81;;;-6.37;82.23
57779;BME280;43608;49.486;9.640;2023-02-10T00:08:06;100569.47;;;-6.37;82.03
57779;BME280;43608;49.486;9.640;2023-02-10T00:08:36;100575.97;;;-6.32;81.48
57779;BME280;43608;49.486;9.640;2023-02-10T00:09:09;100580.19;;;-6.32;81.91
57779;BME280;43608;49.486;9.640;2023-02-10T00:09:40;100581.88;;;-6.33;82.23
57779;BME280;43608;49.486;9.640;2023-02-10T00:10:11;100555.72;;;-6.46;82.01
57779;BME280;43608;49.486;9.640;2023-02-10T00:10:41;100549.34;;;-6.50;82.04
57779;BME280;43608;49.486;9.640;2023-02-10T00:11:12;100545.72;;;-6.52;81.71
57779;BME280;43608;49.486;9.640;2023-02-10T00:11:42;100539.22;;;-6.57;81.98
57779;BME280;43608;49.486;9.640;2023-02-10T00:12:29;100577.97;;;-6.38;82.11
57779;BME280;43608;49.486;9.640;2023-02-10T00:13:00;100535.03;;;-6.65;82.20
57779;BME280;43608;49.486;9.640;2023-02-10T00:13:30;100559.94;;;-6.47;82.36
57779;BME280;43608;49.486;9.640;2023-02-10T00:14:01;100556.66;;;-6.54;82.02
57779;BME280;43608;49.486;9.640;2023-02-10T00:14:31;100575.72;;;-6.43;81.79
57779;BME280;43608;49.486;9.640;2023-02-10T00:15:02;100568.03;;;-6.52;81.84
57779;BME280;43608;49.486;9.640;2023-02-10T00:15:32;100567.13;;;-6.53;81.88
57779;BME280;43608;49.486;9.640;2023-02-10T00:16:04;100583.75;;;-6.40;81.53
57779;BME280;43608;49.486;9.640;2023-02-10T00:16:35;100572.09;;;-6.45;82.08
57779;BME280;43608;49.486;9.640;2023-02-10T00:17:05;100563.63;;;-6.53;81.79
57779;BME280;43608;49.486;9.640;2023-02-10T00:17:36;100572.84;;;-6.47;82.35
57779;BME280;43608;49.486;9.640;2023-02-10T00:18:06;100550.50;;;-6.65;82.24
57779;BME280;43608;49.486;9.640;2023-02-10T00:18:37;100583.47;;;-6.43;82.01
57779;BME280;43608;49.486;9.640;2023-02-10T00:19:07;100584.84;;;-6.47;82.18
57779;BME280;43608;49.486;9.640;2023-02-10T00:19:38;100577.59;;;-6.51;82.08
57779;BME280;43608;49.486;9.640;2023-02-10T00:20:08;100586.53;;;-6.48;82.25
57779;BME280;43608;49.486;9.640;2023-02-10T00:20:39;100557.34;;;-6.66;82.21
57779;BME280;43608;49.486;9.640;2023-02-10T00:21:12;100597.00;;;-6.46;82.57
57779;BME280;43608;49.486;9.640;2023-02-10T00:21:44;100558.38;;;-6.64;82.44
57779;BME280;43608;49.486;9.640;2023-02-10T00:22:14;100574.56;;;-6.56;82.30
57779;BME280;43608;49.486;9.640;2023-02-10T00:22:45;100591.69;;;-6.48;81.94
57779;BME280;43608;49.486;9.640;2023-02-10T00:23:15;100592.59;;;-6.47;82.11
57779;BME280;43608;49.486;9.640;2023-02-10T00:23:45;100564.88;;;-6.58;82.05
57779;BME280;43608;49.486;9.640;2023-02-10T00:24:16;100559.94;;;-6.66;82.03
57779;BME280;43608;49.486;9.640;2023-02-10T00:24:46;100588.94;;;-6.49;82.41
57779;BME280;43608;49.486;9.640;2023-02-10T00:25:17;100575.31;;;-6.57;82.00
57779;BME280;43608;49.486;9.640;2023-02-10T00:25:47;100575.94;;;-6.59;81.83
57779;BME280;43608;49.486;9.640;2023-02-10T00:26:18;100575.66;;;-6.62;81.97
57779;BME280;43608;49.486;9.640;2023-02-10T00:26:49;100573.38;;;-6.59;82.48
57779;BME280;43608;49.486;9.640;2023-02-10T00:27:19;100556.91;;;-6.70;82.45
57779;BME280;43608;49.486;9.640;2023-02-10T00:27:54;100585.19;;;-6.53;82.41
57779;BME280;43608;49.486;9.640;2023-02-10T00:28:24;100564.00;;;-6.68;82.13
57779;BME280;43608;49.486;9.640;2023-02-10T00:28:54;100540.84;;;-6.76;82.03
57779;BME280;43608;49.486;9.640;2023-02-10T00:29:25;100579.31;;;-6.60;82.40
57779;BME280;43608;49.486;9.640;2023-02-10T00:29:56;100593.56;;;-6.55;81.97
57779;BME280;43608;49.486;9.640;2023-02-10T00:30:26;100590.97;;;-6.55;82.46
57779;BME280;43608;49.486;9.640;2023-02-10T00:30:56;100575.53;;;-6.64;82.78
57779;BME280;43608;49.486;9.640;2023-02-10T00:31:27;100580.97;;;-6.61;82.12
57779;BME280;43608;49.486;9.640;2023-02-10T00:31:58;100576.28;;;-6.65;82.81
57779;BME280;43608;49.486;9.640;2023-02-10T00:32:28;100585.38;;;-6.60;82.35
57779;BME280;43608;49.486;9.640;2023-02-10T00:32:58;100562.25;;;-6.77;82.39
57779;BME280;43608;49.486;9.640;2023-02-10T00:33:29;100607.06;;;-6.58;82.81
57779;BME280;43608;49.486;9.640;2023-02-10T00:33:59;100593.25;;;-6.58;82.55
57779;BME280;43608;49.486;9.640;2023-02-10T00:34:30;100603.56;;;-6.58;82.58
57779;BME280;43608;49.486;9.640;2023-02-10T00:35:00;100575.09;;;-6.69;82.67
57779;BME280;43608;49.486;9.640;2023-02-10T00:35:31;100597.50;;;-6.59;82.40
57779;BME280;43608;49.486;9.640;2023-02-10T00:36:06;100589.19;;;-6.65;82.98
57779;BME280;43608;49.486;9.640;2023-02-10T00:36:36;100579.34;;;-6.69;82.33
57779;BME280;43608;49.486;9.640;2023-02-10T00:37:07;100576.78;;;-6.69;82.77
57779;BME280;43608;49.486;9.640;2023-02-10T00:37:37;100596.16;;;-6.64;81.87
57779;BME280;43608;49.486;9.640;2023-02-10T00:38:08;100572.72;;;-6.76;82.78
57779;BME280;43608;49.486;9.640;2023-02-10T00:38:39;100593.28;;;-6.67;82.83
57779;BME280;43608;49.486;9.640;2023-02-10T00:39:16;100595.25;;;-6.65;83.13
57779;BME280;43608;49.486;9.640;2023-02-10T00:39:46;100597.06;;;-6.64;82.82
57779;BME280;43608;49.486;9.640;2023-02-10T00:40:17;100598.75;;;-6.64;82.38
57779;BME280;43608;49.486;9.640;2023-02-10T00:40:47;100585.59;;;-6.76;82.63
57779;BME280;43608;49.486;9.640;2023-02-10T00:41:20;100610.28;;;-6.60;82.91
57779;BME280;43608;49.486;9.640;2023-02-10T00:41:50;100590.28;;;-6.72;82.60
57779;BME280;43608;49.486;9.640;2023-02-10T00:42:21;100589.34;;;-6.72;82.21
57779;BME280;43608;49.486;9.640;2023-02-10T00:42:51;100591.78;;;-6.74;82.73
57779;BME280;43608;49.486;9.640;2023-02-10T00:43:21;100618.00;;;-6.60;82.72
57779;BME280;43608;49.486;9.640;2023-02-10T00:43:52;100617.06;;;-6.61;82.71
57779;BME280;43608;49.486;9.640;2023-02-10T00:44:22;100608.00;;;-6.66;82.88
57779;BME280;43608;49.486;9.640;2023-02-10T00:44:53;100623.16;;;-6.60;82.77
57779;BME280;43608;49.486;9.640;2023-02-10T00:45:23;100549.16;;;-7.07;82.93
57779;BME280;43608;49.486;9.640;2023-02-10T00:45:53;100592.41;;;-6.76;82.67
57779;BME280;43608;49.486;9.640;2023-02-10T00:46:24;100597.56;;;-6.76;82.88
57779;BME280;43608;49.486;9.640;2023-02-10T00:46:54;100604.69;;;-6.74;82.50
57779;BME280;43608;49.486;9.640;2023-02-10T00:47:24;100588.50;;;-6.82;82.86
57779;BME280;43608;49.486;9.640;2023-02-10T00:47:56;100615.59;;;-6.68;82.93
57779;BME280;43608;49.486;9.640;2023-02-10T00:48:26;100605.00;;;-6.71;82.85
57779;BME280;43608;49.486;9.640;2023-02-10T00:48:56;100599.41;;;-6.75;83.11
57779;BME280;43608;49.486;9.640;2023-02-10T00:49:27;100615.72;;;-6.66;82.65
57779;BME280;43608;49.486;9.640;2023-02-10T00:49:57;100610.91;;;-6.72;82.92
57779;BME280;43608;49.486;9.640;2023-02-10T00:50:28;100615.59;;;-6.68;82.88
57779;BME280;43608;49.486;9.640;2023-02-10T00:50:58;100609.22;;;-6.71;82.98
57779;BME280;43608;49.486;9.640;2023-02-10T00:51:28;100588.97;;;-6.86;82.93
57779;BME280;43608;49.486;9.640;2023-02-10T00:51:59;100599.13;;;-6.78;82.79
57779;BME280;43608;49.486;9.640;2023-02-10T00:52:30;100626.81;;;-6.67;82.91
57779;BME280;43608;49.486;9.640;2023-02-10T00:53:00;100593.38;;;-6.85;82.83
57779;BME280;43608;49.486;9.640;2023-02-10T00:53:31;100618.94;;;-6.69;82.85
57779;BME280;43608;49.486;9.640;2023-02-10T00:54:02;100597.00;;;-6.83;82.74
57779;BME280;43608;49.486;9.640;2023-02-10T00:54:32;100621.22;;;-6.72;82.82
57779;BME280;43608;49.486;9.640;2023-02-10T00:55:02;100620.75;;;-6.68;83.12
57779;BME280;43608;49.486;9.640;2023-02-10T00:55:33;100627.72;;;-6.67;82.81
57779;BME280;43608;49.486;9.640;2023-02-10T00:56:04;100607.00;;;-6.77;83.19
57779;BME280;43608;49.486;9.640;2023-02-10T00:56:34;100619.53;;;-6.71;82.48
57779;BME280;43608;49.486;9.640;2023-02-10T00:57:05;100597.00;;;-6.83;82.68
57779;BME280;43608;49.486;9.640;2023-02-10T00:57:35;100604.28;;;-6.78;82.72
57779;BME280;43608;49.486;9.640;2023-02-10T00:58:05;100612.56;;;-6.72;83.22
57779;BME280;43608;49.486;9.640;2023-02-10T00:58:36;100625.00;;;-6.68;83.16
57779;BME280;43608;49.486;9.640;2023-02-10T00:59:07;100609.56;;;-6.77;83.01
57779;BME280;43608;49.486;9.640;2023-02-10T00:59:37;100608.22;;;-6.82;82.97
57779;BME280;43608;49.486;9.640;2023-02-10T01:00:08;100624.09;;;-6.69;82.77
57779;BME280;43608;49.486;9.640;2023-02-10T01:00:39;100625.91;;;-6.68;82.86
57779;BME280;43608;49.486;9.640;2023-02-10T01:01:09;100610.31;;;-6.78;83.07
57779;BME280;43608;49.486;9.640;2023-02-10T01:01:40;100633.66;;;-6.68;83.17
57779;BME280;43608;49.486;9.640;2023-02-10T01:02:10;100612.41;;;-6.74;83.15
57779;BME280;43608;49.486;9.640;2023-02-10T01:02:41;100619.75;;;-6.78;82.96
57779;BME280;43608;49.486;9.640;2023-02-10T01:03:11;100632.75;;;-6.68;82.91
57779;BME280;43608;49.486;9.640;2023-02-10T01:03:42;100575.06;;;-6.97;83.53
57779;BME280;43608;49.486;9.640;2023-02-10T01:04:12;100626.66;;;-6.69;82.95
57779;BME280;43608;49.486;9.640;2023-02-10T01:04:43;100600.03;;;-6.87;82.82
57779;BME280;43608;49.486;9.640;2023-02-10T01:05:13;100620.03;;;-6.75;83.47
57779;BME280;43608;49.486;9.640;2023-02-10T01:05:44;100628.03;;;-6.72;83.19
57779;BME280;43608;49.486;9.640;2023-02-10T01:06:15;100583.69;;;-6.96;83.12
57779;BME280;43608;49.486;9.640;2023-02-10T01:06:45;100621.69;;;-6.76;82.75
57779;BME280;43608;49.486;9.640;2023-02-10T01:07:15;100580.53;;;-7.02;83.01
57779;BME280;43608;49.486;9.640;2023-02-10T01:07:46;100617.16;;;-6.78;83.01
57779;BME280;43608;49.486;9.640;2023-02-10T01:08:16;100608.84;;;-6.85;82.92
57779;BME280;43608;49.486;9.640;2023-02-10T01:08:47;100638.53;;;-6.71;82.73
57779;BME280;43608;49.486;9.640;2023-02-10T01:09:18;100620.50;;;-6.79;82.72
57779;BME280;43608;49.486;9.640;2023-02-10T01:09:48;100621.56;;;-6.77;83.06
57779;BME280;43608;49.486;9.640;2023-02-10T01:10:19;100605.03;;;-6.88;83.09
57779;BME280;43608;49.486;9.640;2023-02-10T01:10:49;100629.59;;;-6.74;83.04
57779;BME280;43608;49.486;9.640;2023-02-10T01:11:20;100632.03;;;-6.76;83.38
57779;BME280;43608;49.486;9.640;2023-02-10T01:11:50;100614.88;;;-6.84;82.96
57779;BME280;43608;49.486;9.640;2023-02-10T01:12:20;100622.00;;;-6.82;82.96
57779;BME280;43608;49.486;9.640;2023-02-10T01:12:51;100636.41;;;-6.75;82.80
57779;BME280;43608;49.486;9.640;2023-02-10T01:13:21;100645.19;;;-6.73;83.32
57779;BME280;43608;49.486;9.640;2023-02-10T01:13:52;100634.28;;;-6.79;83.41
57779;BME280;43608;49.486;9.640;2023-02-10T01:14:23;100630.53;;;-6.83;82.67
57779;BME280;43608;49.486;9.640;2023-02-10T01:14:53;100652.03;;;-6.73;83.03
57779;BME280;43608;49.486;9.640;2023-02-10T01:15:24;100621.28;;;-6.89;82.83
57779;BME280;43608;49.486;9.640;2023-02-10T01:15:54;100641.25;;;-6.78;83.35
57779;BME280;43608;49.486;9.640;2023-02-10T01:16:25;100639.91;;;-6.74;83.09
57779;BME280;43608;49.486;9.640;2023-02-10T01:16:55;100638.06;;;-6.75;82.78
57779;BME280;43608;49.486;9.640;2023-02-10T01:17:26;100613.88;;;-6.95;83.48
57779;BME280;43608;49.486;9.640;2023-02-10T01:17:56;100625.06;;;-6.86;82.78
57779;BME280;43608;49.486;9.640;2023-02-10T01:18:26;100633.38;;;-6.79;83.37
57779;BME280;43608;49.486;9.640;2023-02-10T01:18:58;100613.25;;;-6.92;83.38
57779;BME280;43608;49.486;9.640;2023-02-10T01:19:29;100643.97;;;-6.76;83.11
57779;BME280;43608;49.486;9.640;2023-02-10T01:19:59;100643.97;;;-6.76;83.57
57779;BME280;43608;49.486;9.640;2023-02-10T01:20:30;100632.94;;;-6.84;82.88
57779;BME280;43608;49.486;9.640;2023-02-10T01:21:09;100642.34;;;-6.76;83.68
57779;BME280;43608;49.486;9.640;2023-02-10T01:21:40;100620.81;;;-6.85;83.15
57779;BME280;43608;49.486;9.640;2023-02-10T01:22:10;100608.09;;;-6.92;83.21
57779;BME280;43608;49.486;9.640;2023-02-10T01:22:40;100565.41;;;-7.17;83.40
57779;BME280;43608;49.486;9.640;2023-02-10T01:23:11;100643.97;;;-6.76;83.60
57779;BME280;43608;49.486;9.640;2023-02-10T01:23:41;100614.31;;;-6.90;83.26
57779;BME280;43608;49.486;9.640;2023-02-10T01:24:12;100638.81;;;-6.76;83.63
57779;BME280;43608;49.486;9.640;2023-02-10T01:24:42;100602.50;;;-6.97;83.38
57779;BME280;43608;49.486;9.640;2023-02-10T01:25:12;100624.31;;;-6.85;83.45
57779;BME280;43608;49.486;9.640;2023-02-10T01:25:43;100641.25;;;-6.78;83.59
57779;BME280;43608;49.486;9.640;2023-02-10T01:26:14;100640.22;;;-6.80;83.36
57779;BME280;43608;49.486;9.640;2023-02-10T01:26:45;100613.88;;;-6.95;83.74
57779;BME280;43608;49.486;9.640;2023-02-10T01:27:16;100612.78;;;-6.97;83.51
57779;BME280;43608;49.486;9.640;2023-02-10T01:27:46;100620.09;;;-6.93;82.96
57779;BME280;43608;49.486;9.640;2023-02-10T01:28:16;100626.28;;;-6.91;83.64
57779;BME280;43608;49.486;9.640;2023-02-10T01:28:47;100647.97;;;-6.80;83.58
57779;BME280;43608;49.486;9.640;2023-02-10T01:29:17;100639.78;;;-6.85;82.99
57779;BME280;43608;49.486;9.640;2023-02-10T01:29:47;100631.75;;;-6.88;83.63
57779;BME280;43608;49.486;9.640;2023-02-10T01:30:21;100634.47;;;-6.86;83.27
57779;BME280;43608;49.486;9.640;2023-02-10T01:30:51;100627.03;;;-6.92;83.50
57779;BME280;43608;49.486;9.640;2023-02-10T01:31:22;100652.81;;;-6.83;83.24
57779;BME280;43608;49.486;9.640;2023-02-10T01:31:52;100643.25;;;-6.84;83.15
57779;BME280;43608;49.486;9.640;2023-02-10T01:32:22;100613.13;;;-7.03;83.99
57779;BME280;43608;49.486;9.640;2023-02-10T01:32:53;100650.97;;;-6.84;83.93
57779;BME280;43608;49.486;9.640;2023-02-10T01:33:24;100557.13;;;-7.32;83.34
57779;BME280;43608;49.486;9.640;2023-02-10T01:33:55;100634.03;;;-6.91;82.99
57779;BME280;43608;49.486;9.640;2023-02-10T01:34:25;100647.38;;;-6.86;83.01
57779;BME280;43608;49.486;9.640;2023-02-10T01:34:56;100644.03;;;-6.85;82.90
57779;BME280;43608;49.486;9.640;2023-02-10T01:35:27;100631.31;;;-6.92;83.34
57779;BME280;43608;49.486;9.640;2023-02-10T01:35:57;100631.31;;;-6.92;83.64
57779;BME280;43608;49.486;9.640;2023-02-10T01:36:27;100622.50;;;-6.94;83.56
57779;BME280;43608;49.486;9.640;2023-02-10T01:36:58;100615.84;;;-7.01;83.09
57779;BME280;43608;49.486;9.640;2023-02-10T01:37:28;100640.38;;;-6.87;82.97
57779;BME280;43608;49.486;9.640;2023-02-10T01:37:58;100618.44;;;-7.01;83.59
57779;BME280;43608;49.486;9.640;2023-02-10T01:38:29;100634.78;;;-6.92;83.16
57779;BME280;43608;49.486;9.640;2023-02-10T01:38:59;100624.94;;;-6.96;83.64
57779;BME280;43608;49.486;9.640;2023-02-10T01:39:30;100625.69;;;-6.97;83.01
57779;BME280;43608;49.486;9.640;2023-02-10T01:40:00;100610.13;;;-7.07;83.00
57779;BME280;43608;49.486;9.640;2023-02-10T01:40:30;100611.91;;;-7.06;83.24
57779;BME280;43608;49.486;9.640;2023-02-10T01:41:02;100630.69;;;-6.99;83.21
57779;BME280;43608;49.486;9.640;2023-02-10T01:41:32;100634.34;;;-6.97;83.66
57779;BME280;43608;49.486;9.640;2023-02-10T01:42:03;100620.88;;;-7.03;83.35
57779;BME280;43608;49.486;9.640;2023-02-10T01:42:33;100632.53;;;-6.98;83.21
57779;BME280;43608;49.486;9.640;2023-02-10T01:43:13;100639.94;;;-6.92;83.06
57779;BME280;43608;49.486;9.640;2023-02-10T01:44:04;100641.63;;;-6.92;83.38
57779;BME280;43608;49.486;9.640;2023-02-10T01:45:48;100654.50;;;-6.92;83.23
57779;BME280;43608;49.486;9.640;2023-02-10T01:46:19;100628.88;;;-7.00;83.09
57779;BME280;43608;49.486;9.640;2023-02-10T01:46:49;100646.63;;;-6.94;83.00
57779;BME280;43608;49.486;9.640;2023-02-10T01:47:20;100642.38;;;-6.93;83.53
57779;BME280;43608;49.486;9.640;2023-02-10T01:47:53;100632.25;;;-7.01;83.42
57779;BME280;43608;49.486;9.640;2023-02-10T01:48:25;100625.72;;;-7.06;83.56
57779;BME280;43608;49.486;9.640;2023-02-10T01:48:57;100631.94;;;-7.04;83.62
57779;BME280;43608;49.486;9.640;2023-02-10T01:49:32;100637.81;;;-6.96;83.29
57779;BME280;43608;49.486;9.640;2023-02-10T01:50:03;100621.34;;;-7.07;83.07
57779;BME280;43608;49.486;9.640;2023-02-10T01:50:58;100638.44;;;-6.99;83.77
57779;BME280;43608;49.486;9.640;2023-02-10T01:51:59;100614.97;;;-7.10;83.24
57779;BME280;43608;49.486;9.640;2023-02-10T01:52:28;100610.13;;;-7.16;83.63
57779;BME280;43608;49.486;9.640;2023-02-10T01:53:02;100610.91;;;-7.17;83.67
57779;BME280;43608;49.486;9.640;2023-02-10T01:53:35;100627.56;;;-7.05;83.32
57779;BME280;43608;49.486;9.640;2023-02-10T01:54:08;100639.97;;;-7.01;83.58
57779;BME280;43608;49.486;9.640;2023-02-10T01:54:44;100645.28;;;-6.99;83.80
57779;BME280;43608;49.486;9.640;2023-02-10T01:55:18;100642.69;;;-6.99;83.91
57779;BME280;43608;49.486;9.640;2023-02-10T01:55:52;100633.47;;;-7.06;83.23
57779;BME280;43608;49.486;9.640;2023-02-10T01:56:23;100644.19;;;-7.01;83.74
57779;BME280;43608;49.486;9.640;2023-02-10T01:56:54;100631.34;;;-7.10;83.96
57779;BME280;43608;49.486;9.640;2023-02-10T01:57:25;100625.28;;;-7.10;83.11
57779;BME280;43608;49.486;9.640;2023-02-10T01:57:56;100615.28;;;-7.16;83.17
57779;BME280;43608;49.486;9.640;2023-02-10T01:58:29;100614.97;;;-7.19;83.39
57779;BME280;43608;49.486;9.640;2023-02-10T01:59:00;100640.72;;;-7.02;83.27
57779;BME280;43608;49.486;9.640;2023-02-10T01:59:35;100645.75;;;-7.03;83.57
57779;BME280;43608;49.486;9.640;2023-02-10T02:00:07;100630.91;;;-7.15;83.60
57779;BME280;43608;49.486;9.640;2023-02-10T02:00:38;100645.88;;;-7.02;83.77
57779;BME280;43608;49.486;9.640;2023-02-10T02:01:08;100651.03;;;-7.02;83.87
57779;BME280;43608;49.486;9.640;2023-02-10T02:01:38;100632.88;;;-7.12;83.21
57779;BME280;43608;49.486;9.640;2023-02-10T02:02:10;100642.69;;;-7.08;83.58
57779;BME280;43608;49.486;9.640;2023-02-10T02:02:43;100643.31;;;-7.10;83.84
57779;BME280;43608;49.486;9.640;2023-02-10T02:03:14;100645.13;;;-7.09;83.93
57779;BME280;43608;49.486;9.640;2023-02-10T02:03:45;100621.66;;;-7.21;83.68
57779;BME280;43608;49.486;9.640;2023-02-10T02:04:16;100632.25;;;-7.18;83.76
57779;BME280;43608;49.486;9.640;2023-02-10T02:04:50;100655.91;;;-7.05;83.43
57779;BME280;43608;49.486;9.640;2023-02-10T02:05:30;100660.13;;;-7.05;83.66
57779;BME280;43608;49.486;9.640;2023-02-10T02:06:01;100623.19;;;-7.23;83.50
57779;BME280;43608;49.486;9.640;2023-02-10T02:06:33;100654.09;;;-7.06;83.56
57779;BME280;43608;49.486;9.640;2023-02-10T02:07:04;100620.31;;;-7.26;83.25
57779;BME280;43608;49.486;9.640;2023-02-10T02:07:36;100621.22;;;-7.26;83.58
57779;BME280;43608;49.486;9.640;2023-02-10T02:08:19;100637.41;;;-7.18;83.36
57779;BME280;43608;49.486;9.640;2023-02-10T02:08:52;100629.41;;;-7.21;83.84
57779;BME280;43608;49.486;9.640;2023-02-10T02:09:22;100628.66;;;-7.20;83.81
57779;BME280;43608;49.486;9.640;2023-02-10T02:09:54;100631.38;;;-7.19;83.69
57779;BME280;43608;49.486;9.640;2023-02-10T02:10:34;100620.16;;;-7.28;83.50
57779;BME280;43608;49.486;9.640;2023-02-10T02:12:55;100629.53;;;-7.20;83.31
57779;BME280;43608;49.486;9.640;2023-02-10T02:14:34;100595.63;;;-7.42;83.22
57779;BME280;43608;49.486;9.640;2023-02-10T02:15:14;100634.84;;;-7.18;83.96
57779;BME280;43608;49.486;9.640;2023-02-10T02:18:52;100648.94;;;-7.15;83.40
57779;BME280;43608;49.486;9.640;2023-02-10T02:21:24;100642.72;;;-7.17;83.80
57779;BME280;43608;49.486;9.640;2023-02-10T02:24:21;100620.00;;;-7.30;83.74
57779;BME280;43608;49.486;9.640;2023-02-10T02:25:02;100652.41;;;-7.14;84.08
57779;BME280;43608;49.486;9.640;2023-02-10T02:26:33;100643.94;;;-7.13;84.13
57779;BME280;43608;49.486;9.640;2023-02-10T02:32:22;100653.47;;;-7.12;84.03
57779;BME280;43608;49.486;9.640;2023-02-10T02:33:39;100643.03;;;-7.22;83.95
57779;BME280;43608;49.486;9.640;2023-02-10T02:35:05;100666.22;;;-7.14;84.45
57779;BME280;43608;49.486;9.640;2023-02-10T02:35:48;100659.09;;;-7.16;84.40
57779;BME280;43608;49.486;9.640;2023-02-10T02:36:41;100650.16;;;-7.20;84.33
57779;BME280;43608;49.486;9.640;2023-02-10T02:37:22;100646.06;;;-7.26;84.59
57779;BME280;43608;49.486;9.640;2023-02-10T02:37:54;100652.59;;;-7.21;83.96
57779;BME280;43608;49.486;9.640;2023-02-10T02:38:25;100658.63;;;-7.21;84.42
57779;BME280;43608;49.486;9.640;2023-02-10T02:39:04;100664.25;;;-7.16;83.82
57779;BME280;43608;49.486;9.640;2023-02-10T02:39:34;100648.66;;;-7.26;84.62
57779;BME280;43608;49.486;9.640;2023-02-10T02:40:05;100668.47;;;-7.17;84.50
57779;BME280;43608;49.486;9.640;2023-02-10T02:40:35;100643.34;;;-7.28;84.09
57779;BME280;43608;49.486;9.640;2023-02-10T02:41:06;100663.19;;;-7.18;83.79
57779;BME280;43608;49.486;9.640;2023-02-10T02:41:37;100663.19;;;-7.18;84.31
57779;BME280;43608;49.486;9.640;2023-02-10T02:42:30;100660.31;;;-7.21;84.32
57779;BME280;43608;49.486;9.640;2023-02-10T02:43:00;100648.34;;;-7.30;84.45
57779;BME280;43608;49.486;9.640;2023-02-10T02:43:31;100661.69;;;-7.25;83.80
57779;BME280;43608;49.486;9.640;2023-02-10T02:44:02;100664.41;;;-7.23;84.08
57779;BME280;43608;49.486;9.640;2023-02-10T02:44:35;100665.47;;;-7.21;83.96
57779;BME280;43608;49.486;9.640;2023-02-10T02:47:13;100662.91;;;-7.21;83.83
57779;BME280;43608;49.486;9.640;2023-02-10T02:48:00;100648.19;;;-7.31;84.23
57779;BME280;43608;49.486;9.640;2023-02-10T02:49:44;100647.91;;;-7.34;83.98
57779;BME280;43608;49.486;9.640;2023-02-10T02:52:00;100673.81;;;-7.24;83.89
57779;BME280;43608;49.486;9.640;2023-02-10T02:54:30;100644.72;;;-7.40;83.74
57779;BME280;43608;49.486;9.640;2023-02-10T02:55:03;100670.16;;;-7.26;84.49
57779;BME280;43608;49.486;9.640;2023-02-10T02:55:50;100670.91;;;-7.27;84.39
57779;BME280;43608;49.486;9.640;2023-02-10T02:56:47;100668.19;;;-7.28;83.92
57779;BME280;43608;49.486;9.640;2023-02-10T02:57:28;100664.88;;;-7.27;84.35
57779;BME280;43608;49.486;9.640;2023-02-10T02:58:06;100645.66;;;-7.40;84.54
57779;BME280;43608;49.486;9.640;2023-02-10T02:59:52;100673.34;;;-7.28;84.75
57779;BME280;43608;49.486;9.640;2023-02-10T03:00:28;100650.19;;;-7.37;84.73
57779;BME280;43608;49.486;9.640;2023-02-10T03:01:03;100665.94;;;-7.34;84.21
57779;BME280;43608;49.486;9.640;2023-02-10T03:01:40;100664.56;;;-7.31;84.15
57779;BME280;43608;49.486;9.640;2023-02-10T03:02:14;100670.78;;;-7.28;83.98
57779;BME280;43608;49.486;9.640;2023-02-10T03:02:46;100646.25;;;-7.42;84.58
57779;BME280;43608;49.486;9.640;2023-02-10T03:03:17;100641.72;;;-7.45;84.32
57779;BME280;43608;49.486;9.640;2023-02-10T03:03:48;100654.41;;;-7.38;84.30
57779;BME280;43608;49.486;9.640;2023-02-10T03:04:19;100673.06;;;-7.32;85.13
57779;BME280;43608;49.486;9.640;2023-02-10T03:04:49;100674.28;;;-7.28;84.32
57779;BME280;43608;49.486;9.640;2023-02-10T03:05:21;100675.78;;;-7.30;84.50
57779;BME280;43608;49.486;9.640;2023-02-10T03:05:52;100658.53;;;-7.40;84.04
57779;BME280;43608;49.486;9.640;2023-02-10T03:06:22;100680.31;;;-7.27;84.29
57779;BME280;43608;49.486;9.640;2023-02-10T03:06:52;100653.19;;;-7.41;84.42
57779;BME280;43608;49.486;9.640;2023-02-10T03:07:23;100667.91;;;-7.32;84.51
57779;BME280;43608;49.486;9.640;2023-02-10T03:07:53;100657.31;;;-7.43;84.59
57779;BME280;43608;49.486;9.640;2023-02-10T03:08:23;100674.72;;;-7.32;84.11
57779;BME280;43608;49.486;9.640;2023-02-10T03:08:54;100655.78;;;-7.41;84.84
57779;BME280;43608;49.486;9.640;2023-02-10T03:09:26;100650.47;;;-7.43;84.39
57779;BME280;43608;49.486;9.640;2023-02-10T03:09:57;100660.31;;;-7.39;84.08
57779;BME280;43608;49.486;9.640;2023-02-10T03:10:27;100661.38;;;-7.37;84.25
57779;BME280;43608;49.486;9.640;2023-02-10T03:10:58;100662.59;;;-7.42;84.38
57779;BME280;43608;49.486;9.640;2023-02-10T03:11:28;100654.13;;;-7.41;84.38
57779;BME280;43608;49.486;9.640;2023-02-10T03:11:59;100676.66;;;-7.30;84.54
57779;BME280;43608;49.486;9.640;2023-02-10T03:12:29;100665.78;;;-7.36;84.62
57779;BME280;43608;49.486;9.640;2023-02-10T03:12:59;100650.19;;;-7.46;84.85
57779;BME280;43608;49.486;9.640;2023-02-10T03:13:30;100677.47;;;-7.31;84.87
57779;BME280;43608;49.486;9.640;2023-02-10T03:14:00;100670.00;;;-7.36;84.49
57779;BME280;43608;49.486;9.640;2023-02-10T03:14:31;100666.41;;;-7.38;84.61
57779;BME280;43608;49.486;9.640;2023-02-10T03:15:01;100673.66;;;-7.34;84.80